createdAt,value
2022-10-11T00:02:29.304Z,11.60
2022-10-11T00:05:03.786Z,11.20
2022-10-11T00:07:38.037Z,11.10
2022-10-11T00:10:12.993Z,11.10
2022-10-11T00:12:52.448Z,11.10
2022-10-11T00:15:26.990Z,11.10
2022-10-11T00:18:05.218Z,11.00
2022-10-11T00:20:42.737Z,11.00
2022-10-11T00:23:17.502Z,11.20
2022-10-11T00:26:00.031Z,11.00
2022-10-11T00:28:37.796Z,10.90
2022-10-11T00:31:13.324Z,10.90
2022-10-11T00:33:47.481Z,10.90
2022-10-11T00:36:21.456Z,10.80
2022-10-11T00:38:55.069Z,10.80
2022-10-11T00:41:29.503Z,10.70
2022-10-11T00:44:19.195Z,10.60
2022-10-11T00:46:56.060Z,10.60
2022-10-11T00:49:35.904Z,10.50
2022-10-11T00:52:12.158Z,10.50
2022-10-11T00:54:47.394Z,10.50
2022-10-11T00:57:21.996Z,10.40
2022-10-11T00:59:59.114Z,10.70
2022-10-11T01:02:33.328Z,10.30
2022-10-11T01:05:28.258Z,10.30
2022-10-11T01:08:03.564Z,10.30
2022-10-11T01:10:38.857Z,10.20
2022-10-11T01:13:24.219Z,10.20
2022-10-11T01:16:03.666Z,10.20
2022-10-11T01:18:41.194Z,10.10
2022-10-11T01:21:18.587Z,10.10
2022-10-11T01:24:09.117Z,10.10
2022-10-11T01:26:42.758Z,10.10
2022-10-11T01:29:22.369Z,10.10
2022-10-11T01:32:02.063Z,10.00
2022-10-11T01:34:38.941Z,10.00
2022-10-11T01:37:16.107Z,10.00
2022-10-11T01:39:51.841Z,9.90
2022-10-11T01:42:26.481Z,9.90
2022-10-11T01:45:00.426Z,9.90
2022-10-11T01:47:37.080Z,10.00
2022-10-11T01:50:34.169Z,10.20
2022-10-11T01:53:07.687Z,9.90
2022-10-11T01:55:44.799Z,9.70
2022-10-11T01:58:21.535Z,9.70
2022-10-11T02:00:58.522Z,9.70
2022-10-11T02:03:37.012Z,9.60
2022-10-11T02:06:13.080Z,9.50
2022-10-11T02:08:48.197Z,9.70
2022-10-11T02:11:23.867Z,9.50
2022-10-11T02:14:00.555Z,9.30
2022-10-11T02:16:38.397Z,9.30
2022-10-11T02:19:15.645Z,9.30
2022-10-11T02:21:49.608Z,9.20
2022-10-11T02:24:27.430Z,9.20
2022-10-11T02:27:02.003Z,9.20
2022-10-11T02:29:37.392Z,9.10
2022-10-11T02:32:11.504Z,9.10
2022-10-11T02:34:50.769Z,9.00
2022-10-11T02:37:28.122Z,9.00
2022-10-11T02:40:04.802Z,9.00
2022-10-11T02:42:40.276Z,9.10
2022-10-11T02:45:16.382Z,9.10
2022-10-11T02:47:48.863Z,9.10
2022-10-11T02:50:26.344Z,9.10
2022-10-11T02:53:00.080Z,9.10
2022-10-11T02:55:34.160Z,9.00
2022-10-11T02:58:08.445Z,9.20
2022-10-11T03:00:42.186Z,9.20
2022-10-11T03:03:16.295Z,9.20
2022-10-11T03:05:53.111Z,9.20
2022-10-11T03:08:27.176Z,9.30
2022-10-11T03:10:59.184Z,9.30
2022-10-11T03:13:33.857Z,9.30
2022-10-11T03:16:08.708Z,9.30
2022-10-11T03:18:43.643Z,9.30
2022-10-11T03:21:21.550Z,9.40
2022-10-11T03:23:55.212Z,9.40
2022-10-11T03:26:29.118Z,9.50
2022-10-11T03:29:03.186Z,9.60
2022-10-11T03:31:37.467Z,9.40
2022-10-11T03:34:11.377Z,9.30
2022-10-11T03:36:48.799Z,9.30
2022-10-11T03:39:23.213Z,9.30
2022-10-11T03:41:57.424Z,9.20
2022-10-11T03:44:31.278Z,9.20
2022-10-11T03:47:05.228Z,9.20
2022-10-11T03:49:43.418Z,9.20
2022-10-11T03:52:21.067Z,9.60
2022-10-11T03:54:55.162Z,9.20
2022-10-11T03:57:29.215Z,9.10
2022-10-11T04:00:03.387Z,9.20
2022-10-11T04:02:39.405Z,9.20
2022-10-11T04:05:13.194Z,9.30
2022-10-11T04:07:49.628Z,9.20
2022-10-11T04:10:24.084Z,9.20
2022-10-11T04:12:58.399Z,9.50
2022-10-11T04:15:32.498Z,9.10
2022-10-11T04:18:06.694Z,9.10
2022-10-11T04:20:41.776Z,9.20
2022-10-11T04:23:17.540Z,9.20
2022-10-11T04:25:51.756Z,9.20
2022-10-11T04:28:24.798Z,9.20
2022-10-11T04:30:59.523Z,9.10
2022-10-11T04:33:33.782Z,9.10
2022-10-11T04:36:09.395Z,9.10
2022-10-11T04:38:47.619Z,9.10
2022-10-11T04:41:22.162Z,9.00
2022-10-11T04:43:56.520Z,9.00
2022-10-11T04:46:30.346Z,9.00
2022-10-11T04:49:04.556Z,9.00
2022-10-11T04:51:38.717Z,9.00
2022-10-11T04:54:15.966Z,9.10
2022-10-11T04:56:50.493Z,9.10
2022-10-11T04:59:26.296Z,9.10
2022-10-11T05:02:00.531Z,9.10
2022-10-11T05:04:34.391Z,9.10
2022-10-11T05:07:08.638Z,9.10
2022-10-11T05:09:46.409Z,9.10
2022-10-11T05:12:20.384Z,9.10
2022-10-11T05:14:55.791Z,9.50
2022-10-11T05:17:31.150Z,9.30
2022-10-11T05:20:06.089Z,9.10
2022-10-11T05:22:40.911Z,9.10
2022-10-11T05:25:18.754Z,9.10
2022-10-11T05:27:53.908Z,9.10
2022-10-11T05:30:28.243Z,9.10
2022-10-11T05:33:02.609Z,9.20
2022-10-11T05:35:39.032Z,9.20
2022-10-11T05:38:14.269Z,9.30
2022-10-11T05:40:54.659Z,9.40
2022-10-11T05:43:29.368Z,9.50
2022-10-11T05:46:04.188Z,9.50
2022-10-11T05:48:38.258Z,9.60
2022-10-11T05:51:12.798Z,9.70
2022-10-11T05:53:50.431Z,10.00
2022-10-11T05:56:28.832Z,10.00
2022-10-11T05:59:03.436Z,10.00
2022-10-11T06:01:40.516Z,10.00
2022-10-11T06:04:17.007Z,10.20
2022-10-11T06:06:52.895Z,10.20
2022-10-11T06:09:27.848Z,10.20
2022-10-11T06:12:05.249Z,10.40
2022-10-11T06:14:39.954Z,10.40
2022-10-11T06:17:15.210Z,10.40
2022-10-11T06:19:49.605Z,10.50
2022-10-11T06:22:24.177Z,10.60
2022-10-11T06:24:59.880Z,10.60
2022-10-11T06:27:38.612Z,10.70
2022-10-11T06:30:15.353Z,10.70
2022-10-11T06:32:53.003Z,10.80
2022-10-11T06:35:28.310Z,10.80
2022-10-11T06:38:04.136Z,10.80
2022-10-11T06:40:43.279Z,10.80
2022-10-11T06:43:20.262Z,10.80
2022-10-11T06:45:54.628Z,11.20
2022-10-11T06:48:31.744Z,11.40
2022-10-11T06:51:09.295Z,11.70
2022-10-11T06:53:43.596Z,12.00
2022-10-11T06:56:20.136Z,12.60
2022-10-11T06:58:59.645Z,13.10
2022-10-11T07:01:39.208Z,13.70
2022-10-11T07:04:13.903Z,14.40
2022-10-11T07:06:52.956Z,14.70
2022-10-11T07:09:28.531Z,15.20
2022-10-11T07:12:04.144Z,15.60
2022-10-11T07:14:42.893Z,16.00
2022-10-11T07:17:20.249Z,16.30
2022-10-11T07:19:54.812Z,16.40
2022-10-11T07:22:29.902Z,16.30
2022-10-11T07:25:09.178Z,16.20
2022-10-11T07:27:46.712Z,16.20
2022-10-11T07:30:28.153Z,16.10
2022-10-11T07:33:04.696Z,16.00
2022-10-11T07:35:39.599Z,15.70
2022-10-11T07:38:15.663Z,15.40
2022-10-11T07:40:53.592Z,15.40
2022-10-11T07:43:30.174Z,15.30
2022-10-11T07:46:08.807Z,15.60
2022-10-11T07:48:41.895Z,16.00
2022-10-11T07:51:18.199Z,16.40
2022-10-11T07:53:54.181Z,16.90
2022-10-11T07:56:30.158Z,17.30
2022-10-11T07:59:08.459Z,17.50
2022-10-11T08:01:46.071Z,17.90
2022-10-11T08:04:21.711Z,18.20
2022-10-11T08:06:56.114Z,18.20
2022-10-11T08:09:31.475Z,18.20
2022-10-11T08:12:07.778Z,17.90
2022-10-11T08:14:44.968Z,18.00
2022-10-11T08:17:23.065Z,18.40
2022-10-11T08:19:58.463Z,18.90
2022-10-11T08:22:35.600Z,19.00
2022-10-11T08:25:11.714Z,18.40
2022-10-11T08:27:47.049Z,18.20
2022-10-11T08:30:23.442Z,17.80
2022-10-11T08:32:55.879Z,17.90
2022-10-11T08:35:33.501Z,18.20
2022-10-11T08:38:10.483Z,18.30
2022-10-11T08:40:51.286Z,18.50
2022-10-11T08:43:33.093Z,18.80
2022-10-11T08:46:09.213Z,19.20
2022-10-11T08:48:45.035Z,19.40
2022-10-11T08:51:24.581Z,19.40
2022-10-11T08:54:06.423Z,19.30
2022-10-11T08:56:43.591Z,19.30
2022-10-11T08:59:28.333Z,19.40
2022-10-11T09:02:06.921Z,19.20
2022-10-11T09:04:42.437Z,19.40
2022-10-11T09:07:22.268Z,19.70
2022-10-11T09:10:05.343Z,19.50
2022-10-11T09:12:44.967Z,19.00
2022-10-11T09:15:23.040Z,18.40
2022-10-11T09:18:33.486Z,18.60
2022-10-11T09:21:19.989Z,18.90
2022-10-11T09:24:18.156Z,19.40
2022-10-11T09:26:59.771Z,19.60
2022-10-11T09:29:45.593Z,19.90
2022-10-11T09:32:21.690Z,20.10
2022-10-11T09:34:59.306Z,20.10
2022-10-11T09:37:36.016Z,19.90
2022-10-11T09:40:22.733Z,19.40
2022-10-11T09:43:00.177Z,19.30
2022-10-11T09:45:35.967Z,19.50
2022-10-11T09:48:10.528Z,19.60
2022-10-11T09:50:51.327Z,19.90
2022-10-11T09:53:27.458Z,20.10
2022-10-11T09:56:09.824Z,20.10
2022-10-11T09:58:45.924Z,20.20
2022-10-11T10:01:25.849Z,20.30
2022-10-11T10:04:09.654Z,20.50
2022-10-11T10:06:46.449Z,20.50
2022-10-11T10:09:28.030Z,20.60
2022-10-11T10:12:06.991Z,20.70
2022-10-11T10:14:42.604Z,20.70
2022-10-11T10:17:19.384Z,20.50
2022-10-11T10:19:55.337Z,20.50
2022-10-11T10:22:36.847Z,20.40
2022-10-11T10:25:14.842Z,20.40
2022-10-11T10:27:59.150Z,20.30
2022-10-11T10:30:35.650Z,20.10
2022-10-11T10:33:12.558Z,20.20
2022-10-11T10:35:47.545Z,20.00
2022-10-11T10:38:26.567Z,19.80
2022-10-11T10:41:02.366Z,19.50
2022-10-11T10:43:41.309Z,19.20
2022-10-11T10:46:45.218Z,19.00
2022-10-11T10:49:48.503Z,19.00
2022-10-11T10:52:30.948Z,19.10
2022-10-11T10:55:09.189Z,19.00
2022-10-11T10:57:51.008Z,19.00
2022-10-11T11:00:30.202Z,19.00
2022-10-11T11:03:15.671Z,18.90
2022-10-11T11:09:44.091Z,19.00
2022-10-11T11:12:32.256Z,18.90
2022-10-11T11:15:06.937Z,18.80
2022-10-11T11:17:50.999Z,18.80
2022-10-11T11:21:02.883Z,18.80
2022-10-11T11:23:41.001Z,18.80
2022-10-11T11:26:20.272Z,18.70
2022-10-11T11:29:01.301Z,18.50
2022-10-11T11:31:59.330Z,18.70
2022-10-11T11:34:38.383Z,18.60
2022-10-11T11:37:19.468Z,18.40
2022-10-11T11:39:54.768Z,18.30
2022-10-11T11:42:32.799Z,18.20
2022-10-11T11:45:09.931Z,18.10
2022-10-11T11:47:45.734Z,18.10
2022-10-11T11:50:28.619Z,18.10
2022-10-11T11:53:08.247Z,17.90
2022-10-11T11:55:48.469Z,17.80
2022-10-11T11:58:31.066Z,17.70
2022-10-11T12:01:08.905Z,17.60
2022-10-11T12:03:44.536Z,17.50
2022-10-11T12:06:32.134Z,17.30
2022-10-11T12:09:09.445Z,17.30
2022-10-11T12:11:54.672Z,17.10
2022-10-11T12:14:40.182Z,17.10
2022-10-11T12:17:19.087Z,17.10
2022-10-11T12:20:07.223Z,17.30
2022-10-11T12:22:55.317Z,17.10
2022-10-11T12:25:30.147Z,17.10
2022-10-11T12:28:22.423Z,17.10
2022-10-11T12:30:57.292Z,17.10
2022-10-11T12:33:53.233Z,17.10
2022-10-11T12:36:41.990Z,17.10
2022-10-11T12:39:53.883Z,17.30
2022-10-11T12:42:33.291Z,17.10
2022-10-11T12:45:35.772Z,17.10
2022-10-11T12:48:37.098Z,17.10
2022-10-11T12:51:26.115Z,17.10
2022-10-11T12:54:37.772Z,17.10
2022-10-11T12:57:29.374Z,17.00
2022-10-11T13:00:21.034Z,16.90
2022-10-11T13:02:56.955Z,16.90
2022-10-11T13:05:32.813Z,16.90
2022-10-11T13:08:09.509Z,16.90
2022-10-11T13:10:45.525Z,16.80
2022-10-11T13:13:22.261Z,16.90
2022-10-11T13:16:03.024Z,16.80
2022-10-11T13:18:38.399Z,16.90
2022-10-11T13:21:23.189Z,16.80
2022-10-11T13:24:02.807Z,16.80
2022-10-11T13:26:37.779Z,16.70
2022-10-11T13:29:19.177Z,16.70
2022-10-11T13:31:57.143Z,16.60
2022-10-11T13:34:35.485Z,16.70
2022-10-11T13:37:11.775Z,16.50
2022-10-11T13:39:47.830Z,16.50
2022-10-11T13:42:25.166Z,16.50
2022-10-11T13:45:00.794Z,16.50
2022-10-11T13:47:41.269Z,16.40
2022-10-11T13:50:24.655Z,16.40
2022-10-11T13:53:02.401Z,16.40
2022-10-11T13:55:38.670Z,16.30
2022-10-11T13:58:18.558Z,16.30
2022-10-11T14:00:58.251Z,16.20
2022-10-11T14:03:43.934Z,16.10
2022-10-11T14:06:23.362Z,16.10
2022-10-11T14:08:59.853Z,15.90
2022-10-11T14:11:38.951Z,15.90
2022-10-11T14:14:34.292Z,15.80
2022-10-11T14:17:04.754Z,15.60
2022-10-11T14:19:43.200Z,15.70
2022-10-11T14:22:20.495Z,15.70
2022-10-11T14:24:55.626Z,15.70
2022-10-11T14:27:32.770Z,15.70
2022-10-11T14:30:27.262Z,15.60
2022-10-11T14:33:04.658Z,15.50
2022-10-11T14:35:45.425Z,15.40
2022-10-11T14:38:20.693Z,15.40
2022-10-11T14:40:56.133Z,15.50
2022-10-11T14:43:31.807Z,15.20
2022-10-11T14:46:09.366Z,15.20
2022-10-11T14:48:55.063Z,15.40
2022-10-11T14:51:36.151Z,15.40
2022-10-11T14:54:15.527Z,15.40
2022-10-11T14:56:48.889Z,15.40
2022-10-11T14:59:25.640Z,15.30
2022-10-11T15:02:01.631Z,15.30
2022-10-11T15:04:36.698Z,15.30
2022-10-11T15:07:18.480Z,15.20
2022-10-11T15:09:54.524Z,15.20
2022-10-11T15:12:28.268Z,15.20
2022-10-11T15:15:09.419Z,15.20
2022-10-11T15:17:45.648Z,15.10
2022-10-11T15:20:27.157Z,15.00
2022-10-11T15:23:05.416Z,15.00
2022-10-11T15:25:41.838Z,14.90
2022-10-11T15:28:22.785Z,14.80
2022-10-11T15:30:58.698Z,14.80
2022-10-11T15:33:33.583Z,14.80
2022-10-11T15:36:09.584Z,14.70
2022-10-11T15:38:48.867Z,14.60
2022-10-11T15:41:27.535Z,14.50
2022-10-11T15:44:05.154Z,14.50
2022-10-11T15:46:41.828Z,14.40
2022-10-11T15:49:17.482Z,14.30
2022-10-11T15:51:52.787Z,14.30
2022-10-11T15:54:31.812Z,14.20
2022-10-11T15:57:08.816Z,14.20
2022-10-11T15:59:44.038Z,14.10
2022-10-11T16:02:20.176Z,14.00
2022-10-11T16:05:01.402Z,14.20
2022-10-11T16:07:36.447Z,13.90
2022-10-11T16:10:14.438Z,13.80
2022-10-11T16:12:49.252Z,13.80
2022-10-11T16:15:24.536Z,13.60
2022-10-11T16:17:59.537Z,13.60
2022-10-11T16:20:34.994Z,13.50
2022-10-11T16:23:10.182Z,13.40
2022-10-11T16:25:48.091Z,13.30
2022-10-11T16:28:24.273Z,13.10
2022-10-11T16:30:59.540Z,13.00
2022-10-11T16:33:34.418Z,12.90
2022-10-11T16:36:22.359Z,12.80
2022-10-11T16:38:58.355Z,12.70
2022-10-11T16:41:35.469Z,12.60
2022-10-11T16:44:09.896Z,12.60
2022-10-11T16:46:48.058Z,12.40
2022-10-11T16:49:25.702Z,12.60
2022-10-11T16:52:04.054Z,12.30
2022-10-11T16:54:41.836Z,12.10
2022-10-11T16:57:23.556Z,12.10
2022-10-11T16:59:57.975Z,12.00
2022-10-11T17:02:35.197Z,12.10
2022-10-11T17:05:13.203Z,12.20
2022-10-11T17:07:47.780Z,12.10
2022-10-11T17:10:39.603Z,12.00
2022-10-11T17:13:16.826Z,11.90
2022-10-11T17:15:51.945Z,11.80
2022-10-11T17:18:26.725Z,11.80
2022-10-11T17:21:05.349Z,11.50
2022-10-11T17:23:40.067Z,11.50
2022-10-11T17:26:23.458Z,11.20
2022-10-11T17:28:53.988Z,11.20
2022-10-11T17:31:31.186Z,11.20
2022-10-11T17:34:06.051Z,11.10
2022-10-11T17:36:41.252Z,11.00
2022-10-11T17:39:16.554Z,10.80
2022-10-11T17:41:51.821Z,10.80
2022-10-11T17:44:26.922Z,10.70
2022-10-11T17:47:04.188Z,10.60
2022-10-11T17:49:39.175Z,10.50
2022-10-11T17:52:13.628Z,10.50
2022-10-11T17:54:47.749Z,10.70
2022-10-11T17:57:23.229Z,10.40
2022-10-11T17:59:58.236Z,10.30
2022-10-11T18:02:35.802Z,10.30
2022-10-11T18:05:14.710Z,10.30
2022-10-11T18:07:48.639Z,10.20
2022-10-11T18:10:22.719Z,10.20
2022-10-11T18:12:58.110Z,10.10
2022-10-11T18:15:33.534Z,10.00
2022-10-11T18:18:11.992Z,9.90
2022-10-11T18:20:49.675Z,9.90
2022-10-11T18:23:24.330Z,9.80
2022-10-11T18:26:11.142Z,9.80
2022-10-11T18:28:46.694Z,9.70
2022-10-11T18:31:22.219Z,9.70
2022-10-11T18:33:58.430Z,9.90
2022-10-11T18:36:33.787Z,9.60
2022-10-11T18:39:08.700Z,9.60
2022-10-11T18:41:42.562Z,9.60
2022-10-11T18:44:17.704Z,9.50
2022-10-11T18:46:54.472Z,9.50
2022-10-11T18:49:32.617Z,9.40
2022-10-11T18:52:08.607Z,9.30
2022-10-11T18:54:45.044Z,9.40
2022-10-11T18:57:21.064Z,9.20
2022-10-11T18:59:55.876Z,9.10
2022-10-11T19:02:32.166Z,9.10
2022-10-11T19:05:06.278Z,9.00
2022-10-11T19:07:45.791Z,9.00
2022-10-11T19:10:21.831Z,9.00
2022-10-11T19:12:56.536Z,9.00
2022-10-11T19:15:32.128Z,8.90
2022-10-11T19:18:08.123Z,8.90
2022-10-11T19:20:44.406Z,8.90
2022-10-11T19:23:24.471Z,8.80
2022-10-11T19:26:01.682Z,8.80
2022-10-11T19:28:36.538Z,8.70
2022-10-11T19:31:17.399Z,8.60
2022-10-11T19:33:51.181Z,8.60
2022-10-11T19:36:26.037Z,8.60
2022-10-11T19:39:09.155Z,8.60
2022-10-11T19:41:44.629Z,8.50
2022-10-11T19:44:21.381Z,8.40
2022-10-11T19:46:58.286Z,8.50
2022-10-11T19:49:35.839Z,8.80
2022-10-11T19:52:14.133Z,8.40
2022-10-11T19:54:54.377Z,8.40
2022-10-11T19:57:30.687Z,8.30
2022-10-11T20:00:09.022Z,8.20
2022-10-11T20:02:43.792Z,8.20
2022-10-11T20:05:20.299Z,8.20
2022-10-11T20:07:55.893Z,8.10
2022-10-11T20:10:34.617Z,8.30
2022-10-11T20:13:03.991Z,8.40
2022-10-11T20:15:41.301Z,8.10
2022-10-11T20:18:16.724Z,8.00
2022-10-11T20:20:57.613Z,8.00
2022-10-11T20:23:32.400Z,7.90
2022-10-11T20:26:11.324Z,7.90
2022-10-11T20:28:53.599Z,7.90
2022-10-11T20:31:30.367Z,8.20
2022-10-11T20:34:07.634Z,7.80
2022-10-11T20:36:46.860Z,7.80
2022-10-11T20:39:25.555Z,7.90
2022-10-11T20:42:03.327Z,7.70
2022-10-11T20:44:39.214Z,7.60
2022-10-11T20:47:18.253Z,7.50
2022-10-11T20:49:53.697Z,7.50
2022-10-11T20:52:28.984Z,7.40
2022-10-11T20:55:05.011Z,7.90
2022-10-11T20:57:43.192Z,7.40
2022-10-11T21:00:19.255Z,7.40
2022-10-11T21:02:54.505Z,7.40
2022-10-11T21:05:29.820Z,7.30
2022-10-11T21:08:08.330Z,7.20
2022-10-11T21:10:42.824Z,7.40
2022-10-11T21:13:20.445Z,7.30
2022-10-11T21:15:55.817Z,7.60
2022-10-11T21:18:31.747Z,7.00
2022-10-11T21:21:10.358Z,7.00
2022-10-11T21:23:44.355Z,7.00
2022-10-11T21:26:20.378Z,7.00
2022-10-11T21:28:59.508Z,7.00
2022-10-11T21:31:35.115Z,6.90
2022-10-11T21:34:11.125Z,6.80
2022-10-11T21:36:50.664Z,6.80
2022-10-11T21:39:25.337Z,7.30
2022-10-11T21:41:59.521Z,6.80
2022-10-11T21:44:37.914Z,6.80
2022-10-11T21:47:10.866Z,6.70
2022-10-11T21:49:45.878Z,6.70
2022-10-11T21:52:20.664Z,6.60
2022-10-11T21:54:57.605Z,6.70
2022-10-11T21:57:32.330Z,6.70
2022-10-11T22:00:11.584Z,6.70
2022-10-11T22:02:51.062Z,6.60
2022-10-11T22:05:25.857Z,6.90
2022-10-11T22:08:01.094Z,6.60
2022-10-11T22:10:35.234Z,6.60
2022-10-11T22:13:12.058Z,6.50
2022-10-11T22:15:51.026Z,6.50
2022-10-11T22:18:27.377Z,6.50
2022-10-11T22:21:08.652Z,6.50
2022-10-11T22:23:43.728Z,6.40
2022-10-11T22:26:20.852Z,6.40
2022-10-11T22:28:56.408Z,6.30
2022-10-11T22:31:33.765Z,6.30
2022-10-11T22:34:08.272Z,6.30
2022-10-11T22:36:43.590Z,6.30
2022-10-11T22:39:19.603Z,6.30
2022-10-11T22:41:54.241Z,6.30
2022-10-11T22:44:29.771Z,6.20
2022-10-11T22:47:07.777Z,6.10
2022-10-11T22:49:43.132Z,6.10
2022-10-11T22:52:18.605Z,6.10
2022-10-11T22:54:53.813Z,6.10
2022-10-11T22:57:28.445Z,6.00
2022-10-11T23:00:02.802Z,6.00
2022-10-11T23:02:40.401Z,6.00
2022-10-11T23:05:14.738Z,6.00
2022-10-11T23:07:50.782Z,5.90
2022-10-11T23:10:25.922Z,5.90
2022-10-11T23:13:00.796Z,5.90
2022-10-11T23:15:35.558Z,5.80
2022-10-11T23:18:12.809Z,5.80
2022-10-11T23:20:47.147Z,6.10
2022-10-11T23:23:22.387Z,5.80
2022-10-11T23:26:07.728Z,5.80
2022-10-11T23:28:42.387Z,5.70
2022-10-11T23:31:17.733Z,5.70
2022-10-11T23:33:51.911Z,5.70
2022-10-11T23:36:30.920Z,5.60
2022-10-11T23:39:06.285Z,5.60
2022-10-11T23:41:41.781Z,5.80
2022-10-11T23:44:15.949Z,5.70
2022-10-11T23:46:50.777Z,5.50
2022-10-11T23:49:25.157Z,5.50
2022-10-11T23:52:03.336Z,5.70
2022-10-11T23:54:37.929Z,5.90
2022-10-11T23:57:12.742Z,5.60
2022-10-11T23:59:48.580Z,5.70
